sensor_id;sensor_type;location;lat;lon;timestamp;temperature;humidity
32296;DHT22;18781;51.550;5.418;2022-08-03T00:01:27;24.50;58.90
32296;DHT22;18781;51.550;5.418;2022-08-03T00:03:52;24.50;58.90
32296;DHT22;18781;51.550;5.418;2022-08-03T00:06:18;24.40;58.70
32296;DHT22;18781;51.550;5.418;2022-08-03T00:08:43;24.40;58.70
32296;DHT22;18781;51.550;5.418;2022-08-03T00:11:09;24.40;59.20
32296;DHT22;18781;51.550;5.418;2022-08-03T00:13:35;24.30;59.10
32296;DHT22;18781;51.550;5.418;2022-08-03T00:16:00;24.30;59.20
32296;DHT22;18781;51.550;5.418;2022-08-03T00:18:26;24.20;59.20
32296;DHT22;18781;51.550;5.418;2022-08-03T00:20:51;24.20;59.20
32296;DHT22;18781;51.550;5.418;2022-08-03T00:23:17;24.20;59.40
32296;DHT22;18781;51.550;5.418;2022-08-03T00:25:43;24.20;59.50
32296;DHT22;18781;51.550;5.418;2022-08-03T00:28:09;24.10;59.60
32296;DHT22;18781;51.550;5.418;2022-08-03T00:30:35;24.10;59.60
32296;DHT22;18781;51.550;5.418;2022-08-03T00:33:01;24.10;59.60
32296;DHT22;18781;51.550;5.418;2022-08-03T00:35:28;24.00;59.50
32296;DHT22;18781;51.550;5.418;2022-08-03T00:37:53;24.00;59.80
32296;DHT22;18781;51.550;5.418;2022-08-03T00:40:19;24.00;59.80
32296;DHT22;18781;51.550;5.418;2022-08-03T00:42:53;24.00;59.80
32296;DHT22;18781;51.550;5.418;2022-08-03T00:45:42;23.90;60.30
32296;DHT22;18781;51.550;5.418;2022-08-03T00:48:09;23.90;60.30
32296;DHT22;18781;51.550;5.418;2022-08-03T00:50:39;23.90;60.40
32296;DHT22;18781;51.550;5.418;2022-08-03T00:53:05;23.80;60.60
32296;DHT22;18781;51.550;5.418;2022-08-03T00:55:32;23.80;60.30
32296;DHT22;18781;51.550;5.418;2022-08-03T00:57:59;23.80;60.30
32296;DHT22;18781;51.550;5.418;2022-08-03T01:00:29;23.80;60.30
32296;DHT22;18781;51.550;5.418;2022-08-03T01:02:54;23.70;60.10
32296;DHT22;18781;51.550;5.418;2022-08-03T01:05:20;23.70;60.30
32296;DHT22;18781;51.550;5.418;2022-08-03T01:08:01;23.60;60.20
32296;DHT22;18781;51.550;5.418;2022-08-03T01:10:56;23.60;60.90
32296;DHT22;18781;51.550;5.418;2022-08-03T01:13:39;23.60;60.70
32296;DHT22;18781;51.550;5.418;2022-08-03T01:21:28;23.50;61.20
32296;DHT22;18781;51.550;5.418;2022-08-03T01:27:02;23.40;61.00
32296;DHT22;18781;51.550;5.418;2022-08-03T01:32:36;23.40;60.90
32296;DHT22;18781;51.550;5.418;2022-08-03T01:35:11;23.30;61.00
32296;DHT22;18781;51.550;5.418;2022-08-03T01:37:45;23.30;61.30
32296;DHT22;18781;51.550;5.418;2022-08-03T01:40:12;23.30;61.00
32296;DHT22;18781;51.550;5.418;2022-08-03T01:42:40;23.20;60.60
32296;DHT22;18781;51.550;5.418;2022-08-03T01:45:08;23.20;61.60
32296;DHT22;18781;51.550;5.418;2022-08-03T01:47:35;23.20;60.90
32296;DHT22;18781;51.550;5.418;2022-08-03T01:50:02;23.20;61.10
32296;DHT22;18781;51.550;5.418;2022-08-03T01:52:29;23.20;61.40
32296;DHT22;18781;51.550;5.418;2022-08-03T01:54:57;23.10;61.30
32296;DHT22;18781;51.550;5.418;2022-08-03T01:57:24;23.10;61.50
32296;DHT22;18781;51.550;5.418;2022-08-03T01:59:53;23.10;61.40
32296;DHT22;18781;51.550;5.418;2022-08-03T02:02:20;23.00;61.60
32296;DHT22;18781;51.550;5.418;2022-08-03T02:04:48;23.00;61.50
32296;DHT22;18781;51.550;5.418;2022-08-03T02:07:15;23.00;61.80
32296;DHT22;18781;51.550;5.418;2022-08-03T02:09:44;22.90;61.80
32296;DHT22;18781;51.550;5.418;2022-08-03T02:12:12;22.90;61.90
32296;DHT22;18781;51.550;5.418;2022-08-03T02:14:40;22.90;62.00
32296;DHT22;18781;51.550;5.418;2022-08-03T02:17:08;22.90;62.00
32296;DHT22;18781;51.550;5.418;2022-08-03T02:19:34;22.80;61.80
32296;DHT22;18781;51.550;5.418;2022-08-03T02:22:01;22.80;62.00
32296;DHT22;18781;51.550;5.418;2022-08-03T02:24:28;22.80;62.10
32296;DHT22;18781;51.550;5.418;2022-08-03T02:26:55;22.80;62.10
32296;DHT22;18781;51.550;5.418;2022-08-03T02:29:24;22.80;62.10
32296;DHT22;18781;51.550;5.418;2022-08-03T02:31:50;22.70;62.40
32296;DHT22;18781;51.550;5.418;2022-08-03T02:34:18;22.70;62.30
32296;DHT22;18781;51.550;5.418;2022-08-03T02:36:49;22.70;62.30
32296;DHT22;18781;51.550;5.418;2022-08-03T02:39:19;22.70;62.30
32296;DHT22;18781;51.550;5.418;2022-08-03T02:41:49;22.70;62.80
32296;DHT22;18781;51.550;5.418;2022-08-03T02:44:17;22.70;62.90
32296;DHT22;18781;51.550;5.418;2022-08-03T02:46:46;22.70;62.70
32296;DHT22;18781;51.550;5.418;2022-08-03T02:49:15;22.60;62.70
32296;DHT22;18781;51.550;5.418;2022-08-03T02:51:44;22.60;62.90
32296;DHT22;18781;51.550;5.418;2022-08-03T02:54:16;22.60;63.00
32296;DHT22;18781;51.550;5.418;2022-08-03T02:56:43;22.60;63.40
32296;DHT22;18781;51.550;5.418;2022-08-03T02:59:11;22.50;63.20
32296;DHT22;18781;51.550;5.418;2022-08-03T03:01:37;22.50;63.50
32296;DHT22;18781;51.550;5.418;2022-08-03T03:04:04;22.50;63.50
32296;DHT22;18781;51.550;5.418;2022-08-03T03:06:30;22.50;63.70
32296;DHT22;18781;51.550;5.418;2022-08-03T03:08:57;22.50;63.80
32296;DHT22;18781;51.550;5.418;2022-08-03T03:11:24;22.50;63.90
32296;DHT22;18781;51.550;5.418;2022-08-03T03:13:50;22.50;63.90
32296;DHT22;18781;51.550;5.418;2022-08-03T03:16:17;22.40;63.90
32296;DHT22;18781;51.550;5.418;2022-08-03T03:18:44;22.50;63.90
32296;DHT22;18781;51.550;5.418;2022-08-03T03:21:12;22.50;64.00
32296;DHT22;18781;51.550;5.418;2022-08-03T03:23:40;22.40;64.10
32296;DHT22;18781;51.550;5.418;2022-08-03T03:26:06;22.40;64.00
32296;DHT22;18781;51.550;5.418;2022-08-03T03:28:32;22.40;64.00
32296;DHT22;18781;51.550;5.418;2022-08-03T03:30:58;22.40;63.90
32296;DHT22;18781;51.550;5.418;2022-08-03T03:33:25;22.40;63.90
32296;DHT22;18781;51.550;5.418;2022-08-03T03:35:51;22.40;63.90
32296;DHT22;18781;51.550;5.418;2022-08-03T03:38:18;22.40;64.00
32296;DHT22;18781;51.550;5.418;2022-08-03T03:40:44;22.40;64.20
32296;DHT22;18781;51.550;5.418;2022-08-03T03:43:11;22.40;64.20
32296;DHT22;18781;51.550;5.418;2022-08-03T03:45:37;22.40;64.20
32296;DHT22;18781;51.550;5.418;2022-08-03T03:48:06;22.40;64.20
32296;DHT22;18781;51.550;5.418;2022-08-03T03:50:33;22.40;64.40
32296;DHT22;18781;51.550;5.418;2022-08-03T03:53:00;22.40;64.50
32296;DHT22;18781;51.550;5.418;2022-08-03T03:55:26;22.30;64.30
32296;DHT22;18781;51.550;5.418;2022-08-03T03:57:51;22.40;64.50
32296;DHT22;18781;51.550;5.418;2022-08-03T04:00:17;22.30;64.20
32296;DHT22;18781;51.550;5.418;2022-08-03T04:02:44;22.30;64.30
32296;DHT22;18781;51.550;5.418;2022-08-03T04:05:10;22.30;64.50
32296;DHT22;18781;51.550;5.418;2022-08-03T04:08:00;22.30;64.60
32296;DHT22;18781;51.550;5.418;2022-08-03T04:11:04;22.20;64.80
32296;DHT22;18781;51.550;5.418;2022-08-03T04:13:33;22.20;64.80
32296;DHT22;18781;51.550;5.418;2022-08-03T04:16:00;22.20;64.80
32296;DHT22;18781;51.550;5.418;2022-08-03T04:18:27;22.20;64.40
32296;DHT22;18781;51.550;5.418;2022-08-03T04:20:54;22.20;64.60
32296;DHT22;18781;51.550;5.418;2022-08-03T04:23:24;22.10;64.70
32296;DHT22;18781;51.550;5.418;2022-08-03T04:25:53;22.10;64.80
32296;DHT22;18781;51.550;5.418;2022-08-03T04:28:21;22.10;64.90
32296;DHT22;18781;51.550;5.418;2022-08-03T04:30:48;22.10;64.90
32296;DHT22;18781;51.550;5.418;2022-08-03T04:33:15;22.10;64.90
32296;DHT22;18781;51.550;5.418;2022-08-03T04:35:43;22.00;64.80
32296;DHT22;18781;51.550;5.418;2022-08-03T04:38:12;22.10;64.90
32296;DHT22;18781;51.550;5.418;2022-08-03T04:40:41;22.00;65.10
32296;DHT22;18781;51.550;5.418;2022-08-03T04:43:09;22.00;65.20
32296;DHT22;18781;51.550;5.418;2022-08-03T04:45:36;22.00;65.10
32296;DHT22;18781;51.550;5.418;2022-08-03T04:48:03;22.00;65.20
32296;DHT22;18781;51.550;5.418;2022-08-03T04:50:29;22.00;65.30
32296;DHT22;18781;51.550;5.418;2022-08-03T04:52:55;22.00;65.20
32296;DHT22;18781;51.550;5.418;2022-08-03T04:55:28;22.00;65.40
32296;DHT22;18781;51.550;5.418;2022-08-03T04:57:54;22.00;65.90
32296;DHT22;18781;51.550;5.418;2022-08-03T05:00:20;22.00;65.80
32296;DHT22;18781;51.550;5.418;2022-08-03T05:02:45;22.00;65.90
32296;DHT22;18781;51.550;5.418;2022-08-03T05:05:11;22.00;66.00
32296;DHT22;18781;51.550;5.418;2022-08-03T05:07:37;22.00;66.10
32296;DHT22;18781;51.550;5.418;2022-08-03T05:10:04;22.00;66.30
32296;DHT22;18781;51.550;5.418;2022-08-03T05:12:30;22.00;66.20
32296;DHT22;18781;51.550;5.418;2022-08-03T05:14:56;22.00;66.20
32296;DHT22;18781;51.550;5.418;2022-08-03T05:17:22;22.10;66.40
32296;DHT22;18781;51.550;5.418;2022-08-03T05:19:47;22.10;66.20
32296;DHT22;18781;51.550;5.418;2022-08-03T05:22:13;22.10;66.30
32296;DHT22;18781;51.550;5.418;2022-08-03T05:24:38;22.10;66.30
32296;DHT22;18781;51.550;5.418;2022-08-03T05:27:04;22.20;66.40
32296;DHT22;18781;51.550;5.418;2022-08-03T05:29:29;22.20;66.30
32296;DHT22;18781;51.550;5.418;2022-08-03T05:31:55;22.20;66.40
32296;DHT22;18781;51.550;5.418;2022-08-03T05:34:21;22.20;66.40
32296;DHT22;18781;51.550;5.418;2022-08-03T05:36:46;22.30;66.50
32296;DHT22;18781;51.550;5.418;2022-08-03T05:39:12;22.30;66.40
32296;DHT22;18781;51.550;5.418;2022-08-03T05:41:37;22.30;66.40
32296;DHT22;18781;51.550;5.418;2022-08-03T05:44:03;22.40;66.50
32296;DHT22;18781;51.550;5.418;2022-08-03T05:46:29;22.40;66.50
32296;DHT22;18781;51.550;5.418;2022-08-03T05:48:54;22.40;66.60
32296;DHT22;18781;51.550;5.418;2022-08-03T05:51:20;22.50;66.60
32296;DHT22;18781;51.550;5.418;2022-08-03T05:53:46;22.50;66.70
32296;DHT22;18781;51.550;5.418;2022-08-03T05:56:11;22.50;66.70
32296;DHT22;18781;51.550;5.418;2022-08-03T05:58:37;22.60;66.80
32296;DHT22;18781;51.550;5.418;2022-08-03T06:01:03;22.70;66.70
32296;DHT22;18781;51.550;5.418;2022-08-03T06:03:28;22.70;66.50
32296;DHT22;18781;51.550;5.418;2022-08-03T06:05:54;22.80;66.60
32296;DHT22;18781;51.550;5.418;2022-08-03T06:08:22;22.80;66.50
32296;DHT22;18781;51.550;5.418;2022-08-03T06:10:49;22.90;66.50
32296;DHT22;18781;51.550;5.418;2022-08-03T06:13:15;23.00;66.30
32296;DHT22;18781;51.550;5.418;2022-08-03T06:15:40;23.10;66.30
32296;DHT22;18781;51.550;5.418;2022-08-03T06:18:06;23.10;66.10
32296;DHT22;18781;51.550;5.418;2022-08-03T06:20:32;23.10;66.00
32296;DHT22;18781;51.550;5.418;2022-08-03T06:22:58;23.20;66.00
32296;DHT22;18781;51.550;5.418;2022-08-03T06:25:24;23.30;66.20
32296;DHT22;18781;51.550;5.418;2022-08-03T06:27:50;23.30;66.00
32296;DHT22;18781;51.550;5.418;2022-08-03T06:30:16;23.30;66.00
32296;DHT22;18781;51.550;5.418;2022-08-03T06:32:43;23.40;65.80
32296;DHT22;18781;51.550;5.418;2022-08-03T06:35:09;23.40;65.70
32296;DHT22;18781;51.550;5.418;2022-08-03T06:37:45;23.50;65.40
32296;DHT22;18781;51.550;5.418;2022-08-03T06:40:12;23.50;65.50
32296;DHT22;18781;51.550;5.418;2022-08-03T06:42:38;23.60;65.50
32296;DHT22;18781;51.550;5.418;2022-08-03T06:45:05;23.60;65.40
32296;DHT22;18781;51.550;5.418;2022-08-03T06:47:31;23.60;65.20
32296;DHT22;18781;51.550;5.418;2022-08-03T06:49:57;23.70;65.20
32296;DHT22;18781;51.550;5.418;2022-08-03T06:52:22;23.80;65.10
32296;DHT22;18781;51.550;5.418;2022-08-03T06:54:48;23.80;65.20
32296;DHT22;18781;51.550;5.418;2022-08-03T06:57:13;23.80;64.90
32296;DHT22;18781;51.550;5.418;2022-08-03T06:59:40;23.90;64.80
32296;DHT22;18781;51.550;5.418;2022-08-03T07:02:06;23.90;64.80
32296;DHT22;18781;51.550;5.418;2022-08-03T07:04:34;24.00;64.80
32296;DHT22;18781;51.550;5.418;2022-08-03T07:06:59;24.00;64.60
32296;DHT22;18781;51.550;5.418;2022-08-03T07:09:25;24.10;64.70
32296;DHT22;18781;51.550;5.418;2022-08-03T07:11:51;24.20;64.60
32296;DHT22;18781;51.550;5.418;2022-08-03T07:14:16;24.20;64.60
32296;DHT22;18781;51.550;5.418;2022-08-03T07:16:42;24.30;64.50
32296;DHT22;18781;51.550;5.418;2022-08-03T07:19:08;24.40;64.20
32296;DHT22;18781;51.550;5.418;2022-08-03T07:21:33;24.40;64.10
32296;DHT22;18781;51.550;5.418;2022-08-03T07:23:59;24.50;63.70
32296;DHT22;18781;51.550;5.418;2022-08-03T07:26:24;24.60;63.60
32296;DHT22;18781;51.550;5.418;2022-08-03T07:28:50;24.60;63.30
32296;DHT22;18781;51.550;5.418;2022-08-03T07:31:16;24.70;63.30
32296;DHT22;18781;51.550;5.418;2022-08-03T07:33:41;24.70;63.10
32296;DHT22;18781;51.550;5.418;2022-08-03T07:36:07;24.80;63.20
32296;DHT22;18781;51.550;5.418;2022-08-03T07:38:34;24.90;63.40
32296;DHT22;18781;51.550;5.418;2022-08-03T07:41:00;25.00;63.20
32296;DHT22;18781;51.550;5.418;2022-08-03T07:43:25;25.00;62.90
32296;DHT22;18781;51.550;5.418;2022-08-03T07:45:51;25.10;62.60
32296;DHT22;18781;51.550;5.418;2022-08-03T07:48:17;25.20;62.30
32296;DHT22;18781;51.550;5.418;2022-08-03T07:50:42;25.30;62.70
32296;DHT22;18781;51.550;5.418;2022-08-03T07:53:08;25.30;62.30
32296;DHT22;18781;51.550;5.418;2022-08-03T07:55:34;25.40;62.20
32296;DHT22;18781;51.550;5.418;2022-08-03T07:58:12;25.50;62.00
32296;DHT22;18781;51.550;5.418;2022-08-03T08:00:41;25.50;61.80
32296;DHT22;18781;51.550;5.418;2022-08-03T08:03:07;25.60;61.90
32296;DHT22;18781;51.550;5.418;2022-08-03T08:05:33;25.70;61.80
32296;DHT22;18781;51.550;5.418;2022-08-03T08:08:00;25.80;61.60
32296;DHT22;18781;51.550;5.418;2022-08-03T08:10:26;25.90;61.10
32296;DHT22;18781;51.550;5.418;2022-08-03T08:12:52;26.00;61.10
32296;DHT22;18781;51.550;5.418;2022-08-03T08:15:18;26.10;60.30
32296;DHT22;18781;51.550;5.418;2022-08-03T08:17:49;26.10;60.00
32296;DHT22;18781;51.550;5.418;2022-08-03T08:20:17;26.20;60.10
32296;DHT22;18781;51.550;5.418;2022-08-03T08:22:42;26.30;60.30
32296;DHT22;18781;51.550;5.418;2022-08-03T08:25:08;26.30;60.00
32296;DHT22;18781;51.550;5.418;2022-08-03T08:27:40;26.40;59.70
32296;DHT22;18781;51.550;5.418;2022-08-03T08:30:07;26.50;59.00
32296;DHT22;18781;51.550;5.418;2022-08-03T08:32:33;26.60;59.70
32296;DHT22;18781;51.550;5.418;2022-08-03T08:34:59;26.70;59.40
32296;DHT22;18781;51.550;5.418;2022-08-03T08:37:24;26.80;59.50
32296;DHT22;18781;51.550;5.418;2022-08-03T08:39:50;26.90;59.20
32296;DHT22;18781;51.550;5.418;2022-08-03T08:42:16;27.00;58.60
32296;DHT22;18781;51.550;5.418;2022-08-03T08:44:42;27.10;58.90
32296;DHT22;18781;51.550;5.418;2022-08-03T08:47:08;27.20;59.10
32296;DHT22;18781;51.550;5.418;2022-08-03T08:49:35;27.30;58.50
32296;DHT22;18781;51.550;5.418;2022-08-03T08:52:04;27.40;58.30
32296;DHT22;18781;51.550;5.418;2022-08-03T08:54:30;27.40;58.10
32296;DHT22;18781;51.550;5.418;2022-08-03T08:56:59;27.50;57.40
32296;DHT22;18781;51.550;5.418;2022-08-03T08:59:26;27.60;56.80
32296;DHT22;18781;51.550;5.418;2022-08-03T09:01:56;27.70;56.60
32296;DHT22;18781;51.550;5.418;2022-08-03T09:04:21;27.80;55.60
32296;DHT22;18781;51.550;5.418;2022-08-03T09:06:47;27.90;56.10
32296;DHT22;18781;51.550;5.418;2022-08-03T09:09:13;27.90;55.60
32296;DHT22;18781;51.550;5.418;2022-08-03T09:11:41;28.00;55.50
32296;DHT22;18781;51.550;5.418;2022-08-03T09:14:08;28.10;55.50
32296;DHT22;18781;51.550;5.418;2022-08-03T09:16:34;28.10;55.80
32296;DHT22;18781;51.550;5.418;2022-08-03T09:19:12;28.20;55.70
32296;DHT22;18781;51.550;5.418;2022-08-03T09:21:41;28.30;55.00
32296;DHT22;18781;51.550;5.418;2022-08-03T09:24:06;28.40;55.30
32296;DHT22;18781;51.550;5.418;2022-08-03T09:26:36;28.50;54.50
32296;DHT22;18781;51.550;5.418;2022-08-03T09:29:08;28.60;54.40
32296;DHT22;18781;51.550;5.418;2022-08-03T09:31:46;28.70;53.90
32296;DHT22;18781;51.550;5.418;2022-08-03T09:34:15;28.80;54.20
32296;DHT22;18781;51.550;5.418;2022-08-03T09:36:44;28.80;53.40
32296;DHT22;18781;51.550;5.418;2022-08-03T09:39:12;28.90;54.10
32296;DHT22;18781;51.550;5.418;2022-08-03T09:41:43;29.00;53.60
32296;DHT22;18781;51.550;5.418;2022-08-03T09:44:09;29.10;53.50
32296;DHT22;18781;51.550;5.418;2022-08-03T09:46:49;29.20;53.60
32296;DHT22;18781;51.550;5.418;2022-08-03T09:49:15;29.40;53.90
32296;DHT22;18781;51.550;5.418;2022-08-03T09:51:41;29.40;52.90
32296;DHT22;18781;51.550;5.418;2022-08-03T09:54:07;29.50;52.90
32296;DHT22;18781;51.550;5.418;2022-08-03T09:56:40;29.60;52.70
32296;DHT22;18781;51.550;5.418;2022-08-03T09:59:06;29.70;52.50
32296;DHT22;18781;51.550;5.418;2022-08-03T10:01:32;29.70;52.00
32296;DHT22;18781;51.550;5.418;2022-08-03T10:03:59;29.80;52.10
32296;DHT22;18781;51.550;5.418;2022-08-03T10:06:25;29.90;51.40
32296;DHT22;18781;51.550;5.418;2022-08-03T10:09:24;30.00;51.90
32296;DHT22;18781;51.550;5.418;2022-08-03T10:11:49;30.10;52.60
32296;DHT22;18781;51.550;5.418;2022-08-03T10:14:15;30.20;51.60
32296;DHT22;18781;51.550;5.418;2022-08-03T10:16:44;30.30;51.30
32296;DHT22;18781;51.550;5.418;2022-08-03T10:19:11;30.30;51.00
32296;DHT22;18781;51.550;5.418;2022-08-03T10:21:40;30.40;50.70
32296;DHT22;18781;51.550;5.418;2022-08-03T10:24:08;30.50;50.30
32296;DHT22;18781;51.550;5.418;2022-08-03T10:26:37;30.60;50.00
32296;DHT22;18781;51.550;5.418;2022-08-03T10:29:04;30.70;50.00
32296;DHT22;18781;51.550;5.418;2022-08-03T10:31:38;30.80;52.00
32296;DHT22;18781;51.550;5.418;2022-08-03T10:34:10;30.80;49.20
32296;DHT22;18781;51.550;5.418;2022-08-03T10:36:39;31.00;49.20
32296;DHT22;18781;51.550;5.418;2022-08-03T10:39:05;31.00;48.70
32296;DHT22;18781;51.550;5.418;2022-08-03T10:41:35;31.10;48.90
32296;DHT22;18781;51.550;5.418;2022-08-03T10:44:09;31.10;48.70
32296;DHT22;18781;51.550;5.418;2022-08-03T10:46:35;31.20;48.10
32296;DHT22;18781;51.550;5.418;2022-08-03T10:49:03;31.30;48.20
32296;DHT22;18781;51.550;5.418;2022-08-03T10:51:30;31.40;47.90
32296;DHT22;18781;51.550;5.418;2022-08-03T10:53:57;31.50;47.50
32296;DHT22;18781;51.550;5.418;2022-08-03T11:02:01;31.70;47.10
32296;DHT22;18781;51.550;5.418;2022-08-03T11:04:28;31.80;46.80
32296;DHT22;18781;51.550;5.418;2022-08-03T11:09:47;32.00;47.30
32296;DHT22;18781;51.550;5.418;2022-08-03T11:12:23;32.00;46.70
32296;DHT22;18781;51.550;5.418;2022-08-03T11:14:49;32.10;46.30
32296;DHT22;18781;51.550;5.418;2022-08-03T11:17:15;32.20;46.00
32296;DHT22;18781;51.550;5.418;2022-08-03T11:19:49;32.30;46.40
32296;DHT22;18781;51.550;5.418;2022-08-03T11:22:15;32.40;45.60
32296;DHT22;18781;51.550;5.418;2022-08-03T11:32:50;32.70;46.10
32296;DHT22;18781;51.550;5.418;2022-08-03T11:35:25;32.80;45.20
32296;DHT22;18781;51.550;5.418;2022-08-03T11:40:46;32.90;43.20
32296;DHT22;18781;51.550;5.418;2022-08-03T11:46:10;33.00;43.60
32296;DHT22;18781;51.550;5.418;2022-08-03T11:48:44;33.10;44.00
32296;DHT22;18781;51.550;5.418;2022-08-03T11:51:24;33.10;43.80
32296;DHT22;18781;51.550;5.418;2022-08-03T11:53:54;33.20;43.30
32296;DHT22;18781;51.550;5.418;2022-08-03T11:56:20;33.20;43.00
32296;DHT22;18781;51.550;5.418;2022-08-03T11:58:50;33.30;42.80
32296;DHT22;18781;51.550;5.418;2022-08-03T12:01:18;33.30;42.00
32296;DHT22;18781;51.550;5.418;2022-08-03T12:03:45;33.30;42.30
32296;DHT22;18781;51.550;5.418;2022-08-03T12:06:12;33.30;42.10
32296;DHT22;18781;51.550;5.418;2022-08-03T12:08:40;33.40;42.50
32296;DHT22;18781;51.550;5.418;2022-08-03T12:11:07;33.40;42.80
32296;DHT22;18781;51.550;5.418;2022-08-03T12:13:41;33.50;42.80
32296;DHT22;18781;51.550;5.418;2022-08-03T12:16:07;33.60;42.50
32296;DHT22;18781;51.550;5.418;2022-08-03T12:18:33;33.60;42.80
32296;DHT22;18781;51.550;5.418;2022-08-03T12:21:08;33.70;42.40
32296;DHT22;18781;51.550;5.418;2022-08-03T12:23:34;33.80;43.00
32296;DHT22;18781;51.550;5.418;2022-08-03T12:26:05;33.90;42.40
32296;DHT22;18781;51.550;5.418;2022-08-03T12:28:31;33.90;41.90
32296;DHT22;18781;51.550;5.418;2022-08-03T12:31:03;34.00;42.50
32296;DHT22;18781;51.550;5.418;2022-08-03T12:33:31;34.10;42.30
32296;DHT22;18781;51.550;5.418;2022-08-03T12:36:07;34.10;42.10
32296;DHT22;18781;51.550;5.418;2022-08-03T12:38:35;34.20;42.10
32296;DHT22;18781;51.550;5.418;2022-08-03T12:41:07;34.20;42.30
32296;DHT22;18781;51.550;5.418;2022-08-03T12:43:33;34.30;41.80
32296;DHT22;18781;51.550;5.418;2022-08-03T12:46:10;34.40;41.70
32296;DHT22;18781;51.550;5.418;2022-08-03T12:51:29;34.50;41.60
32296;DHT22;18781;51.550;5.418;2022-08-03T12:53:57;34.50;41.70
32296;DHT22;18781;51.550;5.418;2022-08-03T12:56:23;34.60;41.00
32296;DHT22;18781;51.550;5.418;2022-08-03T12:58:49;34.60;40.80
32296;DHT22;18781;51.550;5.418;2022-08-03T13:01:16;34.70;40.20
32296;DHT22;18781;51.550;5.418;2022-08-03T13:03:43;34.70;40.60
32296;DHT22;18781;51.550;5.418;2022-08-03T13:06:22;34.80;40.50
32296;DHT22;18781;51.550;5.418;2022-08-03T13:08:48;34.80;40.10
32296;DHT22;18781;51.550;5.418;2022-08-03T13:11:32;34.80;40.20
32296;DHT22;18781;51.550;5.418;2022-08-03T13:13:58;34.90;40.90
32296;DHT22;18781;51.550;5.418;2022-08-03T13:16:24;34.90;40.30
32296;DHT22;18781;51.550;5.418;2022-08-03T13:18:50;34.90;40.10
32296;DHT22;18781;51.550;5.418;2022-08-03T13:21:18;34.90;40.20
32296;DHT22;18781;51.550;5.418;2022-08-03T13:23:45;34.90;40.20
32296;DHT22;18781;51.550;5.418;2022-08-03T13:26:11;35.00;40.40
32296;DHT22;18781;51.550;5.418;2022-08-03T13:28:38;35.00;39.80
32296;DHT22;18781;51.550;5.418;2022-08-03T13:31:04;35.10;39.80
32296;DHT22;18781;51.550;5.418;2022-08-03T13:33:30;35.10;39.80
32296;DHT22;18781;51.550;5.418;2022-08-03T13:35:56;35.10;39.20
32296;DHT22;18781;51.550;5.418;2022-08-03T13:38:22;35.10;39.70
32296;DHT22;18781;51.550;5.418;2022-08-03T13:40:50;35.10;40.10
32296;DHT22;18781;51.550;5.418;2022-08-03T13:43:17;35.20;39.90
32296;DHT22;18781;51.550;5.418;2022-08-03T13:45:43;35.20;38.90
32296;DHT22;18781;51.550;5.418;2022-08-03T13:48:09;35.30;38.70
32296;DHT22;18781;51.550;5.418;2022-08-03T13:50:35;35.30;39.40
32296;DHT22;18781;51.550;5.418;2022-08-03T13:53:01;35.30;39.50
32296;DHT22;18781;51.550;5.418;2022-08-03T13:55:26;35.30;39.80
32296;DHT22;18781;51.550;5.418;2022-08-03T13:57:52;35.30;39.60
32296;DHT22;18781;51.550;5.418;2022-08-03T14:00:18;35.30;38.00
32296;DHT22;18781;51.550;5.418;2022-08-03T14:02:48;35.30;38.80
32296;DHT22;18781;51.550;5.418;2022-08-03T14:05:14;35.30;39.30
32296;DHT22;18781;51.550;5.418;2022-08-03T14:07:39;35.30;38.50
32296;DHT22;18781;51.550;5.418;2022-08-03T14:10:05;35.30;38.10
32296;DHT22;18781;51.550;5.418;2022-08-03T14:12:32;35.20;38.10
32296;DHT22;18781;51.550;5.418;2022-08-03T14:14:59;35.10;39.10
32296;DHT22;18781;51.550;5.418;2022-08-03T14:17:24;35.20;39.10
32296;DHT22;18781;51.550;5.418;2022-08-03T14:19:50;35.10;39.00
32296;DHT22;18781;51.550;5.418;2022-08-03T14:22:15;35.10;39.70
32296;DHT22;18781;51.550;5.418;2022-08-03T14:24:41;35.20;39.80
32296;DHT22;18781;51.550;5.418;2022-08-03T14:27:07;35.30;38.90
32296;DHT22;18781;51.550;5.418;2022-08-03T14:29:33;35.30;38.40
32296;DHT22;18781;51.550;5.418;2022-08-03T14:31:58;35.30;38.50
32296;DHT22;18781;51.550;5.418;2022-08-03T14:34:24;35.30;38.50
32296;DHT22;18781;51.550;5.418;2022-08-03T14:36:50;35.30;38.60
32296;DHT22;18781;51.550;5.418;2022-08-03T14:39:15;35.30;39.10
32296;DHT22;18781;51.550;5.418;2022-08-03T14:41:41;35.30;38.50
32296;DHT22;18781;51.550;5.418;2022-08-03T14:44:07;35.30;38.00
32296;DHT22;18781;51.550;5.418;2022-08-03T14:46:32;35.30;38.30
32296;DHT22;18781;51.550;5.418;2022-08-03T14:48:58;35.30;38.50
32296;DHT22;18781;51.550;5.418;2022-08-03T14:51:24;35.30;38.80
32296;DHT22;18781;51.550;5.418;2022-08-03T14:53:50;35.30;39.20
32296;DHT22;18781;51.550;5.418;2022-08-03T14:56:15;35.40;38.40
32296;DHT22;18781;51.550;5.418;2022-08-03T14:58:41;35.30;38.30
32296;DHT22;18781;51.550;5.418;2022-08-03T15:01:07;35.30;38.80
32296;DHT22;18781;51.550;5.418;2022-08-03T15:03:33;35.40;38.70
32296;DHT22;18781;51.550;5.418;2022-08-03T15:05:58;35.40;38.60
32296;DHT22;18781;51.550;5.418;2022-08-03T15:08:24;35.40;38.70
32296;DHT22;18781;51.550;5.418;2022-08-03T15:10:51;35.50;38.40
32296;DHT22;18781;51.550;5.418;2022-08-03T15:13:17;35.50;39.20
32296;DHT22;18781;51.550;5.418;2022-08-03T15:15:44;35.60;39.50
32296;DHT22;18781;51.550;5.418;2022-08-03T15:18:09;35.60;38.40
32296;DHT22;18781;51.550;5.418;2022-08-03T15:20:35;35.60;37.30
32296;DHT22;18781;51.550;5.418;2022-08-03T15:23:00;35.70;37.40
32296;DHT22;18781;51.550;5.418;2022-08-03T15:25:26;35.70;38.40
32296;DHT22;18781;51.550;5.418;2022-08-03T15:27:52;35.70;38.30
32296;DHT22;18781;51.550;5.418;2022-08-03T15:30:18;35.70;37.40
32296;DHT22;18781;51.550;5.418;2022-08-03T15:32:43;35.70;37.80
32296;DHT22;18781;51.550;5.418;2022-08-03T15:35:09;35.60;38.30
32296;DHT22;18781;51.550;5.418;2022-08-03T15:37:34;35.60;37.60
32296;DHT22;18781;51.550;5.418;2022-08-03T15:40:00;35.50;37.80
32296;DHT22;18781;51.550;5.418;2022-08-03T15:42:30;35.50;37.80
32296;DHT22;18781;51.550;5.418;2022-08-03T15:44:57;35.40;37.50
32296;DHT22;18781;51.550;5.418;2022-08-03T15:47:22;35.40;37.40
32296;DHT22;18781;51.550;5.418;2022-08-03T15:49:48;35.30;38.10
32296;DHT22;18781;51.550;5.418;2022-08-03T15:52:13;35.30;38.30
32296;DHT22;18781;51.550;5.418;2022-08-03T15:54:39;35.20;38.00
32296;DHT22;18781;51.550;5.418;2022-08-03T15:57:05;35.20;37.80
32296;DHT22;18781;51.550;5.418;2022-08-03T15:59:30;35.20;38.00
32296;DHT22;18781;51.550;5.418;2022-08-03T16:01:56;35.20;37.10
32296;DHT22;18781;51.550;5.418;2022-08-03T16:04:21;35.20;37.00
32296;DHT22;18781;51.550;5.418;2022-08-03T16:06:47;35.20;37.00
32296;DHT22;18781;51.550;5.418;2022-08-03T16:09:13;35.20;37.60